Time;durP1;ratioP1;P1;durP2;ratioP2;P2;SDS_P1;SDS_P2;PMS_P1;PMS_P2;Temp;Humidity;BMP_temperature;BMP_pressure;BME280_temperature;BME280_humidity;BME280_pressure;Samples;Min_cycle;Max_cycle;Signal;HPM_P1;HPM_P2
2021/08/23 00:00:16;;;;;;;1.25;0.90;;;13.50;99.90;;;;;;5099964;28;20025;-72
2021/08/23 00:02:43;;;;;;;2.10;1.10;;;13.40;99.90;;;;;;5099888;28;20510;-72
2021/08/23 00:05:10;;;;;;;3.90;1.27;;;13.40;99.90;;;;;;5099859;28;20511;-73
2021/08/23 00:07:36;;;;;;;2.45;1.20;;;13.20;99.90;;;;;;5099961;28;20115;-73
2021/08/23 00:10:03;;;;;;;0.80;0.80;;;13.30;99.90;;;;;;5099438;28;20097;-72
2021/08/23 00:12:29;;;;;;;3.00;0.90;;;13.10;99.90;;;;;;5099700;28;20028;-73
2021/08/23 00:14:55;;;;;;;0.70;0.70;;;13.10;99.90;;;;;;5099664;28;20063;-72
2021/08/23 00:17:21;;;;;;;2.35;1.02;;;13.10;99.90;;;;;;5099742;28;20024;-72
2021/08/23 00:19:47;;;;;;;2.17;1.40;;;12.90;99.90;;;;;;5099559;28;20016;-72
2021/08/23 00:22:36;;;;;;;3.08;1.30;;;13.00;99.90;;;;;;5099579;28;20036;-73
2021/08/23 00:25:00;;;;;;;2.25;1.35;;;13.10;99.90;;;;;;5098976;28;20063;-72
2021/08/23 00:27:30;;;;;;;1.55;1.15;;;13.00;99.90;;;;;;5098124;28;20124;-73
2021/08/23 00:29:56;;;;;;;0.80;0.80;;;13.00;99.90;;;;;;5098548;28;20361;-73
2021/08/23 00:32:22;;;;;;;6.13;1.42;;;13.20;99.90;;;;;;5099358;28;20400;-72
2021/08/23 00:34:48;;;;;;;1.90;1.25;;;13.00;99.90;;;;;;5085863;28;20016;-72
2021/08/23 00:37:17;;;;;;;4.32;2.78;;;12.90;99.90;;;;;;5099391;28;20488;-72
2021/08/23 00:39:43;;;;;;;0.60;0.60;;;12.90;99.90;;;;;;5098015;28;20043;-72
2021/08/23 00:42:09;;;;;;;1.45;1.00;;;12.80;99.90;;;;;;5098838;28;20039;-72
2021/08/23 00:44:36;;;;;;;1.00;0.90;;;12.70;99.90;;;;;;5099278;28;20026;-73
2021/08/23 00:47:02;;;;;;;1.15;0.90;;;12.70;99.90;;;;;;5097856;28;20103;-72
2021/08/23 00:49:29;;;;;;;0.90;0.90;;;12.60;99.90;;;;;;5099136;28;20024;-72
2021/08/23 00:51:55;;;;;;;1.65;1.50;;;12.50;99.90;;;;;;5098902;28;20103;-71
2021/08/23 00:54:21;;;;;;;3.38;1.00;;;12.50;99.90;;;;;;5097648;28;20020;-72
2021/08/23 00:56:50;;;;;;;2.65;1.45;;;12.40;99.90;;;;;;5098482;28;20048;-72
2021/08/23 00:59:27;;;;;;;1.50;1.10;;;12.30;99.90;;;;;;5097662;28;20024;-72
2021/08/23 01:02:25;;;;;;;1.25;0.98;;;12.20;99.90;;;;;;5098709;28;20062;-72
2021/08/23 01:05:10;;;;;;;3.83;0.90;;;12.20;99.90;;;;;;5098704;28;20024;-72
2021/08/23 01:07:49;;;;;;;0.70;0.70;;;12.10;99.90;;;;;;5097398;28;20035;-72
2021/08/23 01:10:17;;;;;;;2.55;0.93;;;12.20;99.90;;;;;;5098332;28;20030;-72
2021/08/23 01:12:43;;;;;;;1.17;0.80;;;12.00;99.90;;;;;;5098509;28;20468;-72
2021/08/23 01:15:09;;;;;;;0.80;0.80;;;11.90;99.90;;;;;;5098540;28;20054;-72
2021/08/23 01:17:35;;;;;;;1.15;1.05;;;12.10;99.90;;;;;;5098704;28;20024;-72
2021/08/23 01:20:05;;;;;;;1.35;1.05;;;12.00;99.90;;;;;;5098508;28;20012;-72
2021/08/23 01:22:37;;;;;;;0.70;0.70;;;12.20;99.90;;;;;;5098527;28;20038;-72
2021/08/23 01:25:06;;;;;;;1.08;0.90;;;12.10;99.90;;;;;;5098246;28;20019;-72
2021/08/23 01:27:37;;;;;;;1.10;0.90;;;11.90;99.90;;;;;;5098271;28;20028;-72
2021/08/23 01:30:11;;;;;;;1.17;1.08;;;12.10;99.90;;;;;;5097152;28;20031;-72
2021/08/23 01:32:38;;;;;;;1.85;0.85;;;12.10;99.90;;;;;;5097902;28;20056;-72
2021/08/23 01:35:07;;;;;;;1.48;1.00;;;12.00;99.90;;;;;;5096949;28;20035;-72
2021/08/23 01:37:35;;;;;;;0.70;0.70;;;11.80;99.90;;;;;;5096826;28;20059;-72
2021/08/23 01:40:05;;;;;;;1.05;0.90;;;11.90;99.90;;;;;;5097943;28;20019;-72
2021/08/23 01:42:31;;;;;;;1.20;0.80;;;11.90;99.90;;;;;;5097922;28;20028;-72
2021/08/23 01:44:57;;;;;;;2.05;1.08;;;11.90;99.90;;;;;;5096723;28;20024;-72
2021/08/23 01:47:23;;;;;;;1.08;0.90;;;11.70;99.90;;;;;;5097852;28;20028;-72
2021/08/23 01:49:49;;;;;;;2.70;1.30;;;11.60;99.90;;;;;;5097934;28;20035;-72
2021/08/23 01:52:15;;;;;;;0.80;0.80;;;11.70;99.90;;;;;;5097732;28;20028;-72
2021/08/23 01:54:42;;;;;;;1.98;1.00;;;11.60;99.90;;;;;;5097526;28;20015;-72
2021/08/23 01:57:16;;;;;;;1.58;1.00;;;11.70;99.90;;;;;;5097516;28;20052;-72
2021/08/23 01:59:43;;;;;;;1.60;1.00;;;11.80;99.90;;;;;;5097743;28;20016;-72
2021/08/23 02:02:09;;;;;;;0.80;0.80;;;11.50;99.90;;;;;;5097374;28;20036;-72
2021/08/23 02:04:35;;;;;;;1.75;1.00;;;11.60;99.90;;;;;;5097678;28;20046;-72
2021/08/23 02:07:01;;;;;;;0.70;0.70;;;11.30;99.90;;;;;;5096336;28;20024;-72
2021/08/23 02:09:26;;;;;;;3.22;1.45;;;11.40;99.90;;;;;;5097586;28;20091;-72
2021/08/23 02:11:52;;;;;;;1.85;0.98;;;11.30;99.90;;;;;;5096998;28;20057;-72
2021/08/23 02:14:18;;;;;;;1.50;1.00;;;11.40;99.90;;;;;;5097591;28;20012;-72
2021/08/23 02:16:44;;;;;;;1.95;1.00;;;11.30;99.90;;;;;;5097282;28;20560;-72
2021/08/23 02:19:10;;;;;;;0.93;0.93;;;11.30;99.90;;;;;;5097413;28;20099;-72
2021/08/23 02:21:49;;;;;;;0.80;0.80;;;11.20;99.90;;;;;;5097223;28;20091;-72
2021/08/23 02:24:15;;;;;;;1.77;1.10;;;11.20;99.90;;;;;;5097229;28;20052;-71
2021/08/23 02:26:41;;;;;;;3.67;1.00;;;11.40;99.90;;;;;;5097050;28;20042;-72
2021/08/23 02:29:07;;;;;;;0.90;0.90;;;11.20;99.90;;;;;;5097354;28;20016;-72
2021/08/23 02:31:33;;;;;;;1.75;0.90;;;11.10;99.90;;;;;;5097040;28;20020;-72
2021/08/23 02:33:59;;;;;;;1.10;1.00;;;11.20;99.90;;;;;;5095943;28;20077;-71
2021/08/23 02:36:25;;;;;;;2.20;0.95;;;11.20;99.90;;;;;;5095910;28;20595;-72
2021/08/23 02:38:51;;;;;;;1.30;1.05;;;11.10;99.90;;;;;;5097055;28;20012;-72
2021/08/23 02:41:17;;;;;;;0.95;0.95;;;11.10;99.90;;;;;;5096753;28;20133;-72
2021/08/23 02:43:43;;;;;;;0.80;0.80;;;11.20;99.90;;;;;;5097140;28;20028;-71
2021/08/23 02:46:08;;;;;;;1.20;1.10;;;11.10;99.90;;;;;;5097064;28;20032;-71
2021/08/23 02:48:34;;;;;;;0.98;0.90;;;11.00;99.90;;;;;;5097078;28;20024;-72
2021/08/23 02:51:00;;;;;;;1.08;0.82;;;10.80;99.90;;;;;;5096982;28;20043;-72
2021/08/23 02:53:26;;;;;;;1.20;0.70;;;11.00;99.90;;;;;;5096144;28;20036;-71
2021/08/23 02:55:51;;;;;;;0.75;0.75;;;10.90;99.90;;;;;;5096456;28;20051;-71
2021/08/23 02:58:17;;;;;;;1.75;0.98;;;10.90;99.90;;;;;;5095487;28;20434;-71
2021/08/23 03:00:43;;;;;;;1.65;0.77;;;10.80;99.90;;;;;;5096812;28;20020;-71
2021/08/23 03:03:09;;;;;;;0.90;0.90;;;11.00;99.90;;;;;;5096686;28;20032;-72
2021/08/23 03:05:35;;;;;;;1.35;1.10;;;10.80;99.90;;;;;;5096707;28;20032;-72
2021/08/23 03:08:01;;;;;;;0.73;0.73;;;10.90;99.90;;;;;;5095683;28;20028;-72
2021/08/23 03:10:27;;;;;;;1.25;0.90;;;10.90;99.90;;;;;;5096308;28;20100;-71
2021/08/23 03:12:53;;;;;;;2.28;0.88;;;10.80;99.90;;;;;;5096793;28;20024;-71
2021/08/23 03:15:20;;;;;;;1.42;0.93;;;10.70;99.90;;;;;;5096473;28;20032;-72
2021/08/23 03:17:46;;;;;;;1.15;0.77;;;10.70;99.90;;;;;;5095406;28;20012;-72
2021/08/23 03:20:12;;;;;;;2.85;0.80;;;11.00;99.90;;;;;;5096540;28;20052;-72
2021/08/23 03:22:38;;;;;;;1.45;1.23;;;10.60;99.90;;;;;;5096664;28;20061;-71
2021/08/23 03:25:04;;;;;;;0.90;0.90;;;10.60;99.90;;;;;;5096139;28;20087;-71
2021/08/23 03:27:30;;;;;;;3.05;1.02;;;10.70;99.90;;;;;;5096721;28;20036;-72
2021/08/23 03:29:56;;;;;;;2.03;0.90;;;10.60;99.90;;;;;;5096595;28;20035;-71
2021/08/23 03:32:22;;;;;;;1.23;0.70;;;10.90;99.90;;;;;;5096316;28;20028;-71
2021/08/23 03:34:48;;;;;;;1.50;0.85;;;10.60;99.90;;;;;;5083438;28;20022;-71
2021/08/23 03:37:14;;;;;;;0.90;0.90;;;10.60;99.90;;;;;;5095140;28;20070;-71
2021/08/23 03:39:40;;;;;;;4.85;0.85;;;10.50;99.90;;;;;;5096305;28;20047;-71
2021/08/23 03:42:06;;;;;;;2.22;0.88;;;10.60;99.90;;;;;;5095059;28;20020;-71
2021/08/23 03:44:32;;;;;;;0.80;0.80;;;10.60;99.90;;;;;;5096904;28;20024;-71
2021/08/23 03:46:59;;;;;;;1.27;0.80;;;10.80;99.90;;;;;;5096356;28;20050;-71
2021/08/23 03:49:25;;;;;;;0.75;0.75;;;10.60;99.90;;;;;;5096528;28;20031;-71
2021/08/23 03:51:51;;;;;;;2.70;0.95;;;10.60;99.90;;;;;;5094859;28;20020;-71
2021/08/23 03:54:16;;;;;;;2.03;1.42;;;10.70;99.90;;;;;;5096386;28;20028;-71
2021/08/23 03:56:42;;;;;;;2.33;1.20;;;10.80;99.90;;;;;;5094401;28;20408;-70
2021/08/23 03:59:08;;;;;;;1.83;1.65;;;10.80;99.90;;;;;;5096509;28;20388;-71
2021/08/23 04:01:34;;;;;;;8.82;3.08;;;11.20;99.90;;;;;;5095999;28;20463;-71
2021/08/23 04:04:00;;;;;;;6.15;2.95;;;11.50;99.90;;;;;;5096983;28;20035;-71
2021/08/23 04:06:26;;;;;;;8.95;3.97;;;11.70;99.90;;;;;;5099832;28;20024;-72
2021/08/23 04:08:51;;;;;;;8.63;3.92;;;11.90;99.90;;;;;;5099927;28;20468;-72
2021/08/23 04:11:17;;;;;;;9.18;4.30;;;12.30;99.90;;;;;;5099392;28;20070;-72
2021/08/23 04:13:44;;;;;;;6.20;3.65;;;12.60;99.90;;;;;;5098292;28;20032;-72
2021/08/23 04:16:13;;;;;;;13.18;5.22;;;12.70;99.90;;;;;;5098257;28;20495;-72
2021/08/23 04:18:40;;;;;;;6.18;3.83;;;12.90;99.90;;;;;;5099837;28;20031;-72
2021/08/23 04:21:06;;;;;;;8.48;4.38;;;12.90;99.90;;;;;;5099651;28;20031;-72
2021/08/23 04:23:32;;;;;;;7.82;4.20;;;13.00;99.90;;;;;;5099772;28;20480;-72
2021/08/23 04:25:58;;;;;;;15.43;4.90;;;13.10;99.90;;;;;;5099002;28;20099;-72
2021/08/23 04:28:24;;;;;;;12.23;5.22;;;13.10;99.90;;;;;;5099660;28;20476;-72
2021/08/23 04:30:50;;;;;;;8.52;5.32;;;13.10;99.90;;;;;;5099470;28;20020;-72
2021/08/23 04:33:16;;;;;;;8.07;4.40;;;13.30;99.90;;;;;;5099101;28;20028;-71
2021/08/23 04:35:43;;;;;;;12.10;5.38;;;13.30;99.90;;;;;;5099393;28;20013;-72
2021/08/23 04:38:09;;;;;;;16.98;5.05;;;13.20;99.90;;;;;;5099307;28;20074;-72
2021/08/23 04:40:35;;;;;;;13.25;5.53;;;13.20;99.90;;;;;;5099007;28;20024;-73
2021/08/23 04:43:01;;;;;;;5.63;4.22;;;13.20;99.90;;;;;;5098070;28;20032;-72
2021/08/23 04:45:26;;;;;;;22.00;6.85;;;13.20;99.90;;;;;;5099206;28;20020;-72
2021/08/23 04:47:52;;;;;;;10.65;5.43;;;13.30;99.90;;;;;;5097779;28;20411;-72
2021/08/23 04:50:18;;;;;;;14.50;6.53;;;13.40;99.90;;;;;;5098934;28;20046;-72
2021/08/23 04:52:44;;;;;;;11.35;6.35;;;13.40;99.90;;;;;;5099102;28;20032;-72
2021/08/23 04:55:12;;;;;;;18.60;6.65;;;13.30;99.90;;;;;;5098460;28;20093;-72
2021/08/23 04:57:38;;;;;;;18.23;6.93;;;13.50;99.90;;;;;;5099028;28;20388;-72
2021/08/23 05:00:08;;;;;;;10.48;6.00;;;13.30;99.90;;;;;;5099098;28;20016;-72
2021/08/23 05:02:34;;;;;;;10.40;6.35;;;13.40;99.90;;;;;;5097467;28;20495;-72
2021/08/23 05:05:00;;;;;;;8.52;6.50;;;13.30;99.90;;;;;;5098862;28;20046;-72
2021/08/23 05:07:26;;;;;;;7.72;5.35;;;13.30;99.90;;;;;;5097457;28;20024;-71
2021/08/23 05:09:51;;;;;;;10.77;6.25;;;13.40;99.90;;;;;;5098420;28;20032;-71
2021/08/23 05:12:17;;;;;;;8.82;5.78;;;13.30;99.90;;;;;;5094222;28;20032;-70
2021/08/23 05:14:43;;;;;;;16.30;7.00;;;13.40;99.90;;;;;;5098066;28;20016;-71
2021/08/23 05:17:09;;;;;;;9.65;5.78;;;13.50;99.90;;;;;;5097618;28;20028;-71
2021/08/23 05:19:35;;;;;;;12.50;6.38;;;13.50;99.90;;;;;;5109654;28;20102;-71
2021/08/23 05:22:01;;;;;;;12.85;5.63;;;13.60;99.90;;;;;;5097232;28;20112;-71
2021/08/23 05:24:27;;;;;;;12.75;6.07;;;13.50;99.90;;;;;;5098274;28;20090;-71
2021/08/23 05:26:53;;;;;;;10.10;7.22;;;13.60;99.90;;;;;;5096965;28;20234;-72
2021/08/23 05:29:19;;;;;;;10.70;6.47;;;13.60;99.90;;;;;;5096977;28;20017;-72
2021/08/23 05:31:44;;;;;;;9.98;5.57;;;13.60;99.90;;;;;;5098146;28;20380;-72
2021/08/23 05:34:10;;;;;;;6.82;5.43;;;12.70;99.90;;;;;;5098433;28;20016;-73
2021/08/23 05:36:36;;;;;;;12.13;6.80;;;13.70;99.90;;;;;;5098058;28;20399;-70
2021/08/23 05:39:02;;;;;;;13.38;6.20;;;13.70;99.90;;;;;;5097867;28;20090;-70
2021/08/23 05:41:28;;;;;;;18.55;6.55;;;13.50;99.90;;;;;;5096350;28;20500;-70
2021/08/23 05:43:54;;;;;;;8.18;5.35;;;13.60;99.90;;;;;;5096557;28;20046;-70
2021/08/23 05:46:23;;;;;;;11.45;5.72;;;13.80;99.90;;;;;;5096686;28;20028;-70
2021/08/23 05:48:49;;;;;;;29.02;6.07;;;13.70;99.90;;;;;;5096679;28;20028;-70
2021/08/23 05:51:17;;;;;;;14.73;6.05;;;13.70;99.90;;;;;;5096454;28;20107;-71
2021/08/23 05:53:44;;;;;;;14.10;6.43;;;13.50;99.90;;;;;;5096063;28;20067;-70
2021/08/23 05:56:11;;;;;;;12.95;6.70;;;13.80;99.90;;;;;;5097111;28;20062;-70
2021/08/23 05:58:37;;;;;;;16.50;7.80;;;13.90;99.90;;;;;;5097529;28;20430;-70
2021/08/23 06:01:05;;;;;;;14.05;6.47;;;13.80;99.90;;;;;;5097948;28;20016;-71
2021/08/23 06:03:32;;;;;;;11.05;6.57;;;13.80;99.90;;;;;;5097590;28;20514;-70
2021/08/23 06:06:03;;;;;;;10.23;6.45;;;13.80;99.90;;;;;;5097887;28;20024;-70
2021/08/23 06:08:30;;;;;;;14.38;6.55;;;13.80;99.90;;;;;;5097500;28;20027;-70
2021/08/23 06:10:56;;;;;;;35.72;7.32;;;13.90;99.90;;;;;;5097299;28;20020;-70
2021/08/23 06:13:21;;;;;;;19.98;6.65;;;14.00;99.90;;;;;;5097107;28;20047;-70
2021/08/23 06:15:47;;;;;;;23.77;6.82;;;13.80;99.90;;;;;;5097536;28;20020;-70
2021/08/23 06:18:14;;;;;;;29.50;6.30;;;14.00;99.90;;;;;;5097233;28;20400;-70
2021/08/23 06:20:42;;;;;;;9.80;5.22;;;13.90;99.90;;;;;;5097454;28;20020;-70
2021/08/23 06:23:07;;;;;;;5.88;4.75;;;13.90;99.90;;;;;;5097139;28;20028;-70
2021/08/23 06:25:33;;;;;;;5.85;4.00;;;14.00;99.90;;;;;;5095615;28;20027;-71
2021/08/23 06:27:59;;;;;;;9.52;5.13;;;14.10;99.90;;;;;;5096375;28;20472;-70
2021/08/23 06:30:25;;;;;;;8.05;4.80;;;14.20;99.90;;;;;;5097260;28;20099;-70
2021/08/23 06:32:51;;;;;;;8.82;5.13;;;14.30;99.90;;;;;;5096760;28;20168;-71
2021/08/23 06:35:17;;;;;;;21.25;5.97;;;14.40;99.90;;;;;;5097207;28;20016;-70
2021/08/23 06:37:43;;;;;;;22.38;5.15;;;14.50;99.90;;;;;;5095582;28;20020;-71
2021/08/23 06:40:09;;;;;;;14.45;5.10;;;14.30;99.90;;;;;;5096679;28;20027;-70
2021/08/23 06:42:38;;;;;;;7.53;4.65;;;14.30;99.90;;;;;;5096948;28;20023;-71
2021/08/23 06:45:06;;;;;;;23.75;5.60;;;14.40;99.90;;;;;;5097055;28;21061;-71
2021/08/23 06:47:32;;;;;;;4.57;4.10;;;14.50;99.90;;;;;;5097000;28;20488;-70
2021/08/23 06:49:58;;;;;;;5.35;4.25;;;14.60;99.90;;;;;;5097013;28;20050;-70
2021/08/23 06:52:24;;;;;;;11.77;5.03;;;14.60;99.90;;;;;;5095321;28;20442;-70
2021/08/23 06:54:50;;;;;;;7.15;4.97;;;14.70;99.90;;;;;;5096282;28;20031;-70
2021/08/23 06:57:16;;;;;;;12.05;5.30;;;14.80;99.90;;;;;;5096683;28;20080;-70
2021/08/23 06:59:41;;;;;;;17.80;4.88;;;15.00;99.90;;;;;;5096944;28;20477;-71
2021/08/23 07:02:07;;;;;;;14.70;4.70;;;14.90;99.90;;;;;;5095228;28;20024;-71
2021/08/23 07:04:34;;;;;;;5.72;4.03;;;14.80;99.90;;;;;;5096728;28;20480;-71
2021/08/23 07:07:02;;;;;;;5.93;4.85;;;14.80;99.90;;;;;;5095406;28;20078;-70
2021/08/23 07:09:28;;;;;;;10.13;5.03;;;15.00;99.90;;;;;;5096540;28;20012;-70
2021/08/23 07:11:54;;;;;;;6.47;4.05;;;15.10;99.90;;;;;;5096378;28;20553;-71
2021/08/23 07:14:20;;;;;;;9.07;4.97;;;15.20;99.90;;;;;;5095270;28;20028;-70
2021/08/23 07:16:46;;;;;;;5.90;4.63;;;15.30;99.90;;;;;;5096540;28;20442;-70
2021/08/23 07:19:11;;;;;;;5.97;5.20;;;15.30;99.90;;;;;;5096706;28;20013;-71
2021/08/23 07:21:38;;;;;;;10.50;5.25;;;15.30;99.90;;;;;;5096456;28;20020;-71
2021/08/23 07:24:04;;;;;;;7.53;5.18;;;15.40;99.90;;;;;;5096433;28;20024;-71
2021/08/23 07:26:30;;;;;;;9.57;4.88;;;15.50;99.90;;;;;;5096129;28;20085;-71
2021/08/23 07:28:55;;;;;;;5.90;5.30;;;15.50;99.90;;;;;;5096445;28;20063;-71
2021/08/23 07:31:21;;;;;;;6.93;5.05;;;15.80;99.90;;;;;;5096167;28;20108;-71
2021/08/23 07:33:48;;;;;;;8.23;5.25;;;15.90;99.90;;;;;;5096336;28;20020;-71
2021/08/23 07:36:14;;;;;;;6.85;5.30;;;15.90;99.90;;;;;;5096253;28;20021;-70
2021/08/23 07:38:39;;;;;;;5.47;4.97;;;16.10;99.90;;;;;;5094926;28;20020;-71
2021/08/23 07:41:05;;;;;;;5.97;4.72;;;16.00;99.90;;;;;;5098441;28;20020;-71
2021/08/23 07:43:31;;;;;;;6.43;5.32;;;16.10;99.90;;;;;;5100525;28;20061;-71
2021/08/23 07:45:57;;;;;;;9.35;5.20;;;16.30;99.90;;;;;;5099118;28;20441;-71
2021/08/23 07:48:23;;;;;;;5.60;5.10;;;16.50;99.90;;;;;;5100271;28;20020;-71
2021/08/23 07:50:50;;;;;;;7.03;5.20;;;16.80;99.90;;;;;;5098731;28;20028;-71
2021/08/23 07:53:16;;;;;;;6.40;4.78;;;17.10;99.90;;;;;;5099859;28;20023;-71
2021/08/23 07:55:42;;;;;;;8.35;5.72;;;17.30;99.90;;;;;;5099548;28;20066;-71
2021/08/23 07:58:08;;;;;;;5.00;3.88;;;17.40;99.90;;;;;;5098711;28;20365;-71
2021/08/23 08:00:34;;;;;;;5.43;4.78;;;17.50;99.90;;;;;;5099802;28;20050;-71
2021/08/23 08:03:00;;;;;;;5.53;4.57;;;17.60;99.90;;;;;;5100053;28;20484;-71
2021/08/23 08:05:26;;;;;;;5.22;4.68;;;17.60;99.90;;;;;;5099797;28;20028;-71
2021/08/23 08:07:52;;;;;;;4.43;4.00;;;17.80;99.90;;;;;;5099860;28;20028;-71
2021/08/23 08:10:18;;;;;;;6.65;4.38;;;18.20;99.90;;;;;;5099318;28;20020;-71
2021/08/23 08:12:44;;;;;;;4.60;4.18;;;18.50;99.90;;;;;;5098212;28;20024;-71
2021/08/23 08:15:11;;;;;;;5.45;3.28;;;18.70;99.90;;;;;;5099631;28;20024;-71
2021/08/23 08:17:36;;;;;;;6.38;4.95;;;18.80;99.90;;;;;;5099695;28;20012;-72
2021/08/23 08:20:04;;;;;;;5.88;5.22;;;18.80;99.90;;;;;;5099591;28;20022;-72
2021/08/23 08:22:30;;;;;;;5.20;4.70;;;18.40;99.90;;;;;;5098355;28;20020;-72
2021/08/23 08:24:56;;;;;;;6.78;5.22;;;18.00;99.90;;;;;;5098994;28;20035;-71
2021/08/23 08:27:22;;;;;;;5.82;5.28;;;17.80;99.90;;;;;;5099629;28;20039;-71
2021/08/23 08:29:48;;;;;;;7.63;5.30;;;17.50;99.90;;;;;;5099244;28;20032;-71
2021/08/23 08:32:13;;;;;;;7.95;5.72;;;17.30;99.90;;;;;;5099229;28;20031;-71
2021/08/23 08:34:39;;;;;;;6.15;5.18;;;17.40;99.90;;;;;;5099175;28;20565;-71
2021/08/23 08:37:05;;;;;;;7.55;5.05;;;17.50;99.90;;;;;;5099327;28;20085;-72
2021/08/23 08:39:31;;;;;;;6.82;4.53;;;17.80;99.90;;;;;;5098866;28;20026;-71
2021/08/23 08:41:58;;;;;;;5.18;4.68;;;18.20;99.90;;;;;;5099217;28;20400;-71
2021/08/23 08:44:25;;;;;;;6.95;4.22;;;18.90;99.90;;;;;;5099178;28;20081;-72
2021/08/23 08:46:54;;;;;;;7.57;5.25;;;19.60;99.90;;;;;;5099195;28;20016;-71
2021/08/23 08:49:20;;;;;;;4.45;3.67;;;19.90;99.90;;;;;;5099118;28;20024;-72
2021/08/23 08:51:46;;;;;;;8.35;4.28;;;20.30;99.90;;;;;;5097965;28;20015;-71
2021/08/23 08:54:12;;;;;;;5.20;3.15;;;20.30;99.90;;;;;;5098958;28;20384;-72
2021/08/23 08:56:38;;;;;;;5.28;3.72;;;20.40;99.90;;;;;;5098307;28;20105;-72
2021/08/23 08:59:05;;;;;;;6.97;3.97;;;20.30;99.90;;;;;;5099093;28;20020;-72
2021/08/23 09:01:31;;;;;;;5.07;3.17;;;20.50;99.90;;;;;;5098771;28;20024;-71
2021/08/23 09:04:02;;;;;;;5.30;2.88;;;20.60;99.90;;;;;;5099524;28;20073;-72
2021/08/23 09:06:39;;;;;;;5.68;3.33;;;21.00;99.90;;;;;;5097459;28;20028;-72
2021/08/23 09:09:11;;;;;;;5.60;2.40;;;21.90;99.90;;;;;;5098629;28;20488;-72
2021/08/23 09:11:39;;;;;;;3.47;2.50;;;22.70;99.90;;;;;;5098135;28;20430;-72
2021/08/23 09:14:07;;;;;;;3.53;2.53;;;23.00;99.90;;;;;;5098642;28;20371;-72
2021/08/23 09:16:35;;;;;;;4.13;2.50;;;23.00;99.90;;;;;;5098508;28;20016;-72
2021/08/23 09:19:01;;;;;;;3.88;2.47;;;23.10;99.90;;;;;;5097309;28;20020;-72
2021/08/23 09:21:40;;;;;;;2.97;2.47;;;23.10;99.90;;;;;;5098190;28;20035;-72
2021/08/23 09:24:20;;;;;;;5.97;2.30;;;23.00;99.90;;;;;;5098324;28;20035;-71
2021/08/23 09:26:46;;;;;;;2.78;2.40;;;23.00;99.90;;;;;;5098216;28;20012;-72
2021/08/23 09:29:12;;;;;;;1.92;1.73;;;23.60;99.90;;;;;;5098500;28;20024;-72
2021/08/23 09:31:39;;;;;;;3.13;2.13;;;24.20;99.90;;;;;;5096834;28;20024;-72
2021/08/23 09:34:08;;;;;;;7.70;2.38;;;24.90;99.90;;;;;;5096731;28;20032;-72
2021/08/23 09:36:34;;;;;;;3.65;1.60;;;25.50;99.90;;;;;;5098226;28;20422;-72
2021/08/23 09:39:12;;;;;;;2.05;1.70;;;25.60;99.90;;;;;;5096740;28;20028;-72
2021/08/23 09:41:41;;;;;;;4.85;1.88;;;25.50;99.90;;;;;;5097789;28;20028;-72
2021/08/23 09:44:14;;;;;;;5.53;2.20;;;25.70;99.90;;;;;;5097832;28;20024;-72
2021/08/23 09:46:42;;;;;;;3.90;2.08;;;26.30;99.90;;;;;;5098266;28;20070;-72
2021/08/23 09:49:12;;;;;;;3.28;1.75;;;26.10;99.90;;;;;;5097843;28;20066;-72
2021/08/23 09:51:40;;;;;;;2.33;1.60;;;25.90;99.90;;;;;;5097803;28;20021;-72
2021/08/23 09:54:08;;;;;;;2.25;1.30;;;;;;;;;;5097494;28;20047;-72
2021/08/23 09:56:38;;;;;;;2.53;1.13;;;27.50;99.90;;;;;;5097214;28;20052;-72
2021/08/23 09:59:05;;;;;;;1.63;1.05;;;28.40;99.90;;;;;;5096278;28;20385;-72
2021/08/23 10:01:35;;;;;;;5.10;1.38;;;29.00;99.90;;;;;;5097935;28;20028;-72
2021/08/23 10:04:04;;;;;;;3.22;1.60;;;29.30;99.90;;;;;;5097883;28;20106;-72
2021/08/23 10:06:33;;;;;;;3.55;1.70;;;29.70;99.40;;;;;;5097611;28;20399;-72
2021/08/23 10:09:02;;;;;;;2.00;1.33;;;29.50;96.70;;;;;;5097824;28;20081;-72
2021/08/23 10:11:31;;;;;;;1.35;0.82;;;29.20;98.30;;;;;;5097100;28;20028;-72
2021/08/23 10:13:58;;;;;;;1.30;0.90;;;29.40;98.10;;;;;;5097335;28;20061;-72
2021/08/23 10:16:24;;;;;;;2.40;1.20;;;29.60;98.10;;;;;;5097299;28;20020;-72
2021/08/23 10:18:50;;;;;;;1.10;0.70;;;29.90;97.20;;;;;;5097537;28;20056;-72
2021/08/23 10:21:17;;;;;;;1.75;0.80;;;29.90;96.30;;;;;;5097175;28;20505;-72
2021/08/23 10:23:43;;;;;;;1.85;1.05;;;30.20;96.50;;;;;;5097293;28;20054;-73
2021/08/23 10:26:10;;;;;;;1.95;1.00;;;30.40;95.40;;;;;;5096730;28;20055;-72
2021/08/23 10:28:37;;;;;;;1.17;0.73;;;30.20;94.20;;;;;;5097312;28;20384;-72
2021/08/23 10:31:10;;;;;;;1.85;0.93;;;30.80;93.60;;;;;;5097195;28;20039;-72
2021/08/23 10:33:42;;;;;;;2.95;0.90;;;30.80;94.10;;;;;;5095544;28;20459;-72
2021/08/23 10:36:12;;;;;;;2.60;0.80;;;30.70;93.90;;;;;;5096930;28;20110;-72
2021/08/23 10:38:42;;;;;;;3.10;0.88;;;30.10;91.70;;;;;;5096974;28;20028;-72
2021/08/23 10:41:09;;;;;;;3.35;1.02;;;28.80;92.20;;;;;;5096552;28;20020;-72
2021/08/23 10:43:50;;;;;;;3.22;1.17;;;28.70;94.60;;;;;;5097172;28;20024;-72
2021/08/23 10:46:30;;;;;;;1.13;0.85;;;29.60;95.50;;;;;;5097105;28;20116;-72
2021/08/23 10:48:59;;;;;;;2.10;0.80;;;30.50;94.50;;;;;;5096823;28;20026;-72
2021/08/23 10:51:33;;;;;;;0.98;0.50;;;31.50;93.40;;;;;;5096965;28;20024;-72
2021/08/23 10:53:59;;;;;;;0.52;0.50;;;32.90;91.10;;;;;;5096802;28;20027;-72
2021/08/23 10:56:38;;;;;;;1.30;0.50;;;33.10;91.70;;;;;;5096385;28;20044;-72
2021/08/23 10:59:16;;;;;;;3.85;0.75;;;33.10;90.20;;;;;;5096982;28;20020;-72
2021/08/23 11:01:57;;;;;;;1.45;0.73;;;32.40;87.40;;;;;;5096611;28;20020;-72
2021/08/23 11:04:33;;;;;;;1.80;0.80;;;31.60;89.40;;;;;;5096948;28;20021;-71
2021/08/23 11:07:01;;;;;;;2.88;0.82;;;31.10;88.40;;;;;;5096837;28;20111;-72
2021/08/23 11:09:41;;;;;;;1.95;0.75;;;31.30;90.50;;;;;;5096681;28;20024;-72
2021/08/23 11:12:15;;;;;;;0.98;0.60;;;31.90;90.30;;;;;;5096772;28;20032;-72
2021/08/23 11:14:46;;;;;;;1.20;0.55;;;32.80;86.40;;;;;;5098480;28;20069;-72
2021/08/23 11:17:12;;;;;;;1.10;0.70;;;33.20;89.30;;;;;;5100987;28;20028;-72
2021/08/23 11:19:40;;;;;;;2.50;0.70;;;33.30;86.80;;;;;;5100800;28;20031;-72
2021/08/23 11:22:07;;;;;;;3.80;0.95;;;33.50;86.80;;;;;;5100780;28;20026;-72
2021/08/23 11:24:35;;;;;;;1.70;0.70;;;33.60;84.40;;;;;;5100226;28;20081;-72
2021/08/23 11:27:03;;;;;;;1.27;0.70;;;33.80;83.90;;;;;;5099327;28;20073;-72
2021/08/23 11:29:31;;;;;;;3.72;0.90;;;33.60;84.40;;;;;;5100729;28;20012;-72
2021/08/23 11:32:00;;;;;;;0.73;0.65;;;33.50;82.40;;;;;;5099074;28;20019;-71
2021/08/23 11:34:27;;;;;;;2.33;1.15;;;33.70;83.90;;;;;;5099181;28;20024;-72
2021/08/23 11:36:59;;;;;;;1.15;0.73;;;33.80;82.10;;;;;;5100449;28;20024;-73
2021/08/23 11:39:31;;;;;;;1.52;0.80;;;33.50;81.60;;;;;;5099915;28;20035;-72
2021/08/23 11:42:06;;;;;;;1.27;0.50;;;31.10;83.30;;;;;;5100536;28;20085;-72
2021/08/23 11:44:32;;;;;;;;;;;31.00;84.20;;;;;;5099667;28;20046;-72
2021/08/23 11:47:01;;;;;;;1.30;0.85;;;30.90;84.60;;;;;;5100426;28;19904;-72
2021/08/23 11:49:30;;;;;;;1.10;0.52;;;31.30;87.00;;;;;;5100486;28;20012;-72
2021/08/23 11:51:57;;;;;;;3.00;0.65;;;32.00;87.90;;;;;;5100013;28;20024;-71
2021/08/23 11:54:23;;;;;;;4.45;0.82;;;32.90;87.00;;;;;;5099870;28;20016;-71
2021/08/23 11:56:49;;;;;;;1.13;0.68;;;33.90;85.80;;;;;;5099861;28;20534;-72
2021/08/23 11:59:15;;;;;;;1.27;0.90;;;34.60;83.80;;;;;;5100241;28;20024;-72
2021/08/23 12:01:41;;;;;;;1.60;0.90;;;34.60;80.60;;;;;;5099796;28;20023;-71
2021/08/23 12:04:07;;;;;;;1.92;0.85;;;33.50;78.20;;;;;;5100139;28;20027;-72
2021/08/23 12:06:36;;;;;;;2.45;1.00;;;30.30;81.80;;;;;;5099805;28;20020;-72
2021/08/23 12:09:04;;;;;;;1.80;1.10;;;30.30;82.70;;;;;;5099814;28;20051;-72
2021/08/23 12:11:42;;;;;;;0.93;0.55;;;29.80;89.30;;;;;;5099590;28;20491;-71
2021/08/23 12:14:20;;;;;;;1.98;0.90;;;30.90;90.20;;;;;;5098325;28;20024;-71
2021/08/23 12:16:47;;;;;;;1.50;0.88;;;32.30;84.60;;;;;;5099640;28;20027;-72
2021/08/23 12:19:14;;;;;;;3.22;0.90;;;32.70;82.30;;;;;;5099890;28;20024;-71
2021/08/23 12:21:42;;;;;;;0.75;0.70;;;32.50;81.50;;;;;;5099621;28;20476;-72
2021/08/23 12:24:24;;;;;;;2.53;0.95;;;31.60;82.00;;;;;;5099505;28;20020;-71
2021/08/23 12:26:56;;;;;;;1.42;0.68;;;31.30;85.20;;;;;;5098176;28;20027;-72
2021/08/23 12:29:37;;;;;;;2.78;1.45;;;31.30;83.90;;;;;;5099390;28;20103;-71
2021/08/23 12:32:08;;;;;;;3.30;1.08;;;31.20;83.40;;;;;;5099307;28;20020;-72
2021/08/23 12:34:41;;;;;;;1.88;0.82;;;30.80;84.30;;;;;;5099278;28;20045;-71
2021/08/23 12:37:07;;;;;;;3.63;1.15;;;30.40;85.30;;;;;;5099458;28;20099;-71
2021/08/23 12:39:34;;;;;;;1.48;0.93;;;29.70;85.70;;;;;;5098716;28;20103;-71
2021/08/23 12:42:11;;;;;;;1.73;0.90;;;29.00;86.80;;;;;;5099450;28;20050;-71
2021/08/23 12:44:38;;;;;;;1.40;1.00;;;28.80;90.30;;;;;;5099447;28;20101;-71
2021/08/23 12:47:04;;;;;;;2.47;1.00;;;29.30;90.50;;;;;;5099208;28;20028;-71